sensor_id;sensor_type;location;lat;lon;timestamp;temperature;humidity
21744;DHT22;11034;48.556;9.342;2024-03-08T00:00:15;2.30;99.90
21744;DHT22;11034;48.556;9.342;2024-03-08T00:02:47;2.20;99.90
21744;DHT22;11034;48.556;9.342;2024-03-08T00:05:17;2.30;99.90
21744;DHT22;11034;48.556;9.342;2024-03-08T00:07:47;2.30;99.90
21744;DHT22;11034;48.556;9.342;2024-03-08T00:10:15;2.30;99.90
21744;DHT22;11034;48.556;9.342;2024-03-08T00:12:44;2.30;99.90
21744;DHT22;11034;48.556;9.342;2024-03-08T00:15:14;2.30;99.90
21744;DHT22;11034;48.556;9.342;2024-03-08T00:17:45;2.30;99.90
21744;DHT22;11034;48.556;9.342;2024-03-08T00:20:15;2.20;99.90
21744;DHT22;11034;48.556;9.342;2024-03-08T00:22:46;2.30;99.90
21744;DHT22;11034;48.556;9.342;2024-03-08T00:25:15;2.20;99.90
21744;DHT22;11034;48.556;9.342;2024-03-08T00:27:44;2.10;99.90
21744;DHT22;11034;48.556;9.342;2024-03-08T00:30:16;2.00;99.90
21744;DHT22;11034;48.556;9.342;2024-03-08T00:32:45;2.00;99.90
21744;DHT22;11034;48.556;9.342;2024-03-08T00:35:13;2.00;99.90
21744;DHT22;11034;48.556;9.342;2024-03-08T00:37:41;2.10;99.90
21744;DHT22;11034;48.556;9.342;2024-03-08T00:40:10;2.10;99.90
21744;DHT22;11034;48.556;9.342;2024-03-08T00:42:39;2.20;99.90
21744;DHT22;11034;48.556;9.342;2024-03-08T00:45:09;2.10;99.90
21744;DHT22;11034;48.556;9.342;2024-03-08T00:47:38;2.10;99.90
21744;DHT22;11034;48.556;9.342;2024-03-08T00:50:07;2.10;99.90
21744;DHT22;11034;48.556;9.342;2024-03-08T00:52:35;2.20;99.90
21744;DHT22;11034;48.556;9.342;2024-03-08T00:55:04;2.10;99.90
21744;DHT22;11034;48.556;9.342;2024-03-08T00:57:33;2.00;99.90
21744;DHT22;11034;48.556;9.342;2024-03-08T01:00:05;2.00;99.90
21744;DHT22;11034;48.556;9.342;2024-03-08T01:02:39;1.90;99.90
21744;DHT22;11034;48.556;9.342;2024-03-08T01:05:07;1.90;99.90
21744;DHT22;11034;48.556;9.342;2024-03-08T01:07:36;1.80;99.90
21744;DHT22;11034;48.556;9.342;2024-03-08T01:10:08;1.80;99.90
21744;DHT22;11034;48.556;9.342;2024-03-08T01:12:38;1.70;99.90
21744;DHT22;11034;48.556;9.342;2024-03-08T01:15:09;1.80;99.90
21744;DHT22;11034;48.556;9.342;2024-03-08T01:17:38;1.90;99.90
21744;DHT22;11034;48.556;9.342;2024-03-08T01:20:07;1.90;99.90
21744;DHT22;11034;48.556;9.342;2024-03-08T01:22:38;1.90;99.90
21744;DHT22;11034;48.556;9.342;2024-03-08T01:25:07;1.90;99.90
21744;DHT22;11034;48.556;9.342;2024-03-08T01:27:35;1.90;99.90
21744;DHT22;11034;48.556;9.342;2024-03-08T01:30:04;1.70;99.90
21744;DHT22;11034;48.556;9.342;2024-03-08T01:32:34;1.70;99.90
21744;DHT22;11034;48.556;9.342;2024-03-08T01:35:03;1.80;99.90
21744;DHT22;11034;48.556;9.342;2024-03-08T01:37:31;1.80;99.90
21744;DHT22;11034;48.556;9.342;2024-03-08T01:39:59;1.80;99.90
21744;DHT22;11034;48.556;9.342;2024-03-08T01:42:27;1.80;99.90
21744;DHT22;11034;48.556;9.342;2024-03-08T01:44:55;1.60;99.90
21744;DHT22;11034;48.556;9.342;2024-03-08T01:47:24;1.60;99.90
21744;DHT22;11034;48.556;9.342;2024-03-08T01:49:54;1.60;99.90
21744;DHT22;11034;48.556;9.342;2024-03-08T01:52:22;1.50;99.90
21744;DHT22;11034;48.556;9.342;2024-03-08T01:54:52;1.40;99.90
21744;DHT22;11034;48.556;9.342;2024-03-08T01:57:20;1.40;99.90
21744;DHT22;11034;48.556;9.342;2024-03-08T01:59:48;1.40;99.90
21744;DHT22;11034;48.556;9.342;2024-03-08T02:02:18;1.40;99.90
21744;DHT22;11034;48.556;9.342;2024-03-08T02:04:47;1.40;99.90
21744;DHT22;11034;48.556;9.342;2024-03-08T02:07:16;1.40;99.90
21744;DHT22;11034;48.556;9.342;2024-03-08T02:09:44;1.30;99.90
21744;DHT22;11034;48.556;9.342;2024-03-08T02:12:12;1.30;99.90
21744;DHT22;11034;48.556;9.342;2024-03-08T02:14:41;1.30;99.90
21744;DHT22;11034;48.556;9.342;2024-03-08T02:17:10;1.30;99.90
21744;DHT22;11034;48.556;9.342;2024-03-08T02:19:39;1.30;99.90
21744;DHT22;11034;48.556;9.342;2024-03-08T02:22:09;1.40;99.90
21744;DHT22;11034;48.556;9.342;2024-03-08T02:24:37;1.40;99.90
21744;DHT22;11034;48.556;9.342;2024-03-08T02:27:05;1.30;99.90
21744;DHT22;11034;48.556;9.342;2024-03-08T02:29:34;1.20;99.90
21744;DHT22;11034;48.556;9.342;2024-03-08T02:32:02;1.20;99.90
21744;DHT22;11034;48.556;9.342;2024-03-08T02:34:31;1.10;99.90
21744;DHT22;11034;48.556;9.342;2024-03-08T02:36:59;1.10;99.90
21744;DHT22;11034;48.556;9.342;2024-03-08T02:39:29;1.10;99.90
21744;DHT22;11034;48.556;9.342;2024-03-08T02:41:59;1.10;99.90
21744;DHT22;11034;48.556;9.342;2024-03-08T02:44:27;1.10;99.90
21744;DHT22;11034;48.556;9.342;2024-03-08T02:46:55;1.00;99.90
21744;DHT22;11034;48.556;9.342;2024-03-08T02:49:23;0.90;99.90
21744;DHT22;11034;48.556;9.342;2024-03-08T02:51:51;1.00;99.90
21744;DHT22;11034;48.556;9.342;2024-03-08T02:54:20;1.00;99.90
21744;DHT22;11034;48.556;9.342;2024-03-08T02:56:49;0.90;99.90
21744;DHT22;11034;48.556;9.342;2024-03-08T02:59:18;0.90;99.90
21744;DHT22;11034;48.556;9.342;2024-03-08T03:01:46;0.90;99.90
21744;DHT22;11034;48.556;9.342;2024-03-08T03:04:14;0.80;99.90
21744;DHT22;11034;48.556;9.342;2024-03-08T03:06:42;0.70;99.90
21744;DHT22;11034;48.556;9.342;2024-03-08T03:09:10;0.70;99.90
21744;DHT22;11034;48.556;9.342;2024-03-08T03:11:38;0.60;99.90
21744;DHT22;11034;48.556;9.342;2024-03-08T03:14:08;0.70;99.90
21744;DHT22;11034;48.556;9.342;2024-03-08T03:16:36;0.70;99.90
21744;DHT22;11034;48.556;9.342;2024-03-08T03:19:04;0.60;99.90
21744;DHT22;11034;48.556;9.342;2024-03-08T03:21:33;0.50;99.90
21744;DHT22;11034;48.556;9.342;2024-03-08T03:24:03;0.50;99.90
21744;DHT22;11034;48.556;9.342;2024-03-08T03:26:37;0.70;99.90
21744;DHT22;11034;48.556;9.342;2024-03-08T03:29:06;0.70;99.90
21744;DHT22;11034;48.556;9.342;2024-03-08T03:31:36;0.80;99.90
21744;DHT22;11034;48.556;9.342;2024-03-08T03:34:04;0.90;99.90
21744;DHT22;11034;48.556;9.342;2024-03-08T03:36:35;0.90;99.90
21744;DHT22;11034;48.556;9.342;2024-03-08T03:39:05;0.80;99.90
21744;DHT22;11034;48.556;9.342;2024-03-08T03:41:37;0.80;99.90
21744;DHT22;11034;48.556;9.342;2024-03-08T03:44:06;0.80;99.90
21744;DHT22;11034;48.556;9.342;2024-03-08T03:46:35;0.80;99.90
21744;DHT22;11034;48.556;9.342;2024-03-08T03:49:03;0.70;99.90
21744;DHT22;11034;48.556;9.342;2024-03-08T03:51:31;0.70;99.90
21744;DHT22;11034;48.556;9.342;2024-03-08T03:53:59;0.60;99.90
21744;DHT22;11034;48.556;9.342;2024-03-08T03:56:31;0.60;99.90
21744;DHT22;11034;48.556;9.342;2024-03-08T03:58:59;0.60;99.90
21744;DHT22;11034;48.556;9.342;2024-03-08T04:01:27;0.70;99.90
21744;DHT22;11034;48.556;9.342;2024-03-08T04:03:58;0.70;99.90
21744;DHT22;11034;48.556;9.342;2024-03-08T04:06:26;0.70;99.90
21744;DHT22;11034;48.556;9.342;2024-03-08T04:08:54;0.70;99.90
21744;DHT22;11034;48.556;9.342;2024-03-08T04:11:22;0.70;99.90
21744;DHT22;11034;48.556;9.342;2024-03-08T04:13:50;0.80;99.90
21744;DHT22;11034;48.556;9.342;2024-03-08T04:16:19;0.90;99.90
21744;DHT22;11034;48.556;9.342;2024-03-08T04:18:47;0.90;99.90
21744;DHT22;11034;48.556;9.342;2024-03-08T04:21:17;0.80;99.90
21744;DHT22;11034;48.556;9.342;2024-03-08T04:23:45;0.70;99.90
21744;DHT22;11034;48.556;9.342;2024-03-08T04:26:13;0.60;99.90
21744;DHT22;11034;48.556;9.342;2024-03-08T04:28:45;0.60;99.90
21744;DHT22;11034;48.556;9.342;2024-03-08T04:31:13;0.60;99.90
21744;DHT22;11034;48.556;9.342;2024-03-08T04:33:42;0.60;99.90
21744;DHT22;11034;48.556;9.342;2024-03-08T04:36:11;0.70;99.90
21744;DHT22;11034;48.556;9.342;2024-03-08T04:38:42;0.70;99.90
21744;DHT22;11034;48.556;9.342;2024-03-08T04:41:10;0.70;99.90
21744;DHT22;11034;48.556;9.342;2024-03-08T04:43:38;0.70;99.90
21744;DHT22;11034;48.556;9.342;2024-03-08T04:46:07;0.80;99.90
21744;DHT22;11034;48.556;9.342;2024-03-08T04:48:35;0.70;99.90
21744;DHT22;11034;48.556;9.342;2024-03-08T04:51:04;0.60;99.90
21744;DHT22;11034;48.556;9.342;2024-03-08T04:53:32;0.60;99.90
21744;DHT22;11034;48.556;9.342;2024-03-08T04:56:03;0.70;99.90
21744;DHT22;11034;48.556;9.342;2024-03-08T04:58:33;0.70;99.90
21744;DHT22;11034;48.556;9.342;2024-03-08T05:01:03;0.70;99.90
21744;DHT22;11034;48.556;9.342;2024-03-08T05:03:32;0.70;99.90
21744;DHT22;11034;48.556;9.342;2024-03-08T05:06:00;0.70;99.90
21744;DHT22;11034;48.556;9.342;2024-03-08T05:08:28;0.70;99.90
21744;DHT22;11034;48.556;9.342;2024-03-08T05:10:56;0.70;99.90
21744;DHT22;11034;48.556;9.342;2024-03-08T05:13:26;0.70;99.90
21744;DHT22;11034;48.556;9.342;2024-03-08T05:15:54;0.80;99.90
21744;DHT22;11034;48.556;9.342;2024-03-08T05:18:25;0.80;99.90
21744;DHT22;11034;48.556;9.342;2024-03-08T05:20:55;0.90;99.90
21744;DHT22;11034;48.556;9.342;2024-03-08T05:23:23;0.80;99.90
21744;DHT22;11034;48.556;9.342;2024-03-08T05:25:51;0.80;99.90
21744;DHT22;11034;48.556;9.342;2024-03-08T05:28:19;0.80;99.90
21744;DHT22;11034;48.556;9.342;2024-03-08T05:30:49;0.90;99.90
21744;DHT22;11034;48.556;9.342;2024-03-08T05:33:17;0.90;99.90
21744;DHT22;11034;48.556;9.342;2024-03-08T05:35:46;0.90;99.90
21744;DHT22;11034;48.556;9.342;2024-03-08T05:38:14;0.90;99.90
21744;DHT22;11034;48.556;9.342;2024-03-08T05:40:42;0.90;99.90
21744;DHT22;11034;48.556;9.342;2024-03-08T05:43:11;0.90;99.90
21744;DHT22;11034;48.556;9.342;2024-03-08T05:45:39;0.90;99.90
21744;DHT22;11034;48.556;9.342;2024-03-08T05:48:09;0.90;99.90
21744;DHT22;11034;48.556;9.342;2024-03-08T05:50:39;0.90;99.90
21744;DHT22;11034;48.556;9.342;2024-03-08T05:53:07;0.90;99.90
21744;DHT22;11034;48.556;9.342;2024-03-08T05:55:36;1.00;99.90
21744;DHT22;11034;48.556;9.342;2024-03-08T05:58:04;1.00;99.90
21744;DHT22;11034;48.556;9.342;2024-03-08T06:00:34;1.00;99.90
21744;DHT22;11034;48.556;9.342;2024-03-08T06:03:03;1.10;99.90
21744;DHT22;11034;48.556;9.342;2024-03-08T06:05:32;1.10;99.90
21744;DHT22;11034;48.556;9.342;2024-03-08T06:08:01;1.10;99.90
21744;DHT22;11034;48.556;9.342;2024-03-08T06:10:29;1.10;99.90
21744;DHT22;11034;48.556;9.342;2024-03-08T06:12:59;1.10;99.90
21744;DHT22;11034;48.556;9.342;2024-03-08T06:15:28;1.10;99.90
21744;DHT22;11034;48.556;9.342;2024-03-08T06:17:57;1.20;99.90
21744;DHT22;11034;48.556;9.342;2024-03-08T06:20:25;1.20;99.90
21744;DHT22;11034;48.556;9.342;2024-03-08T06:22:55;1.30;99.90
21744;DHT22;11034;48.556;9.342;2024-03-08T06:25:23;1.20;99.90
21744;DHT22;11034;48.556;9.342;2024-03-08T06:27:51;1.30;99.90
21744;DHT22;11034;48.556;9.342;2024-03-08T06:30:20;1.30;99.90
21744;DHT22;11034;48.556;9.342;2024-03-08T06:32:49;1.40;99.90
21744;DHT22;11034;48.556;9.342;2024-03-08T06:35:18;1.40;99.90
21744;DHT22;11034;48.556;9.342;2024-03-08T06:37:47;1.40;99.90
21744;DHT22;11034;48.556;9.342;2024-03-08T06:40:16;1.50;99.90
21744;DHT22;11034;48.556;9.342;2024-03-08T06:42:45;1.50;99.90
21744;DHT22;11034;48.556;9.342;2024-03-08T06:45:13;1.60;99.90
21744;DHT22;11034;48.556;9.342;2024-03-08T06:47:46;1.60;99.90
21744;DHT22;11034;48.556;9.342;2024-03-08T06:50:14;1.60;99.90
21744;DHT22;11034;48.556;9.342;2024-03-08T06:52:43;1.60;99.90
21744;DHT22;11034;48.556;9.342;2024-03-08T06:55:13;1.60;99.90
21744;DHT22;11034;48.556;9.342;2024-03-08T06:57:42;1.70;99.90
21744;DHT22;11034;48.556;9.342;2024-03-08T07:00:11;1.80;99.90
21744;DHT22;11034;48.556;9.342;2024-03-08T07:02:45;1.80;99.90
21744;DHT22;11034;48.556;9.342;2024-03-08T07:05:15;1.80;99.90
21744;DHT22;11034;48.556;9.342;2024-03-08T07:07:44;1.90;99.90
21744;DHT22;11034;48.556;9.342;2024-03-08T07:10:12;2.00;99.90
21744;DHT22;11034;48.556;9.342;2024-03-08T07:12:43;2.00;99.90
21744;DHT22;11034;48.556;9.342;2024-03-08T07:15:12;2.20;99.90
21744;DHT22;11034;48.556;9.342;2024-03-08T07:17:42;2.10;99.90
21744;DHT22;11034;48.556;9.342;2024-03-08T07:20:12;2.20;99.90
21744;DHT22;11034;48.556;9.342;2024-03-08T07:22:41;2.30;99.90
21744;DHT22;11034;48.556;9.342;2024-03-08T07:25:14;2.40;99.90
21744;DHT22;11034;48.556;9.342;2024-03-08T07:27:51;2.30;99.90
21744;DHT22;11034;48.556;9.342;2024-03-08T07:30:21;2.30;99.90
21744;DHT22;11034;48.556;9.342;2024-03-08T07:33:07;2.20;99.90
21744;DHT22;11034;48.556;9.342;2024-03-08T07:35:39;2.30;99.90
21744;DHT22;11034;48.556;9.342;2024-03-08T07:38:08;2.40;99.90
21744;DHT22;11034;48.556;9.342;2024-03-08T07:40:37;2.40;99.90
21744;DHT22;11034;48.556;9.342;2024-03-08T07:43:08;2.50;99.90
21744;DHT22;11034;48.556;9.342;2024-03-08T07:45:37;2.70;99.90
21744;DHT22;11034;48.556;9.342;2024-03-08T07:48:06;2.80;99.90
21744;DHT22;11034;48.556;9.342;2024-03-08T07:50:37;2.70;99.90
21744;DHT22;11034;48.556;9.342;2024-03-08T07:53:06;2.80;99.90
21744;DHT22;11034;48.556;9.342;2024-03-08T07:55:35;2.80;99.90
21744;DHT22;11034;48.556;9.342;2024-03-08T07:58:04;2.70;99.90
21744;DHT22;11034;48.556;9.342;2024-03-08T08:00:34;2.80;99.90
21744;DHT22;11034;48.556;9.342;2024-03-08T08:03:03;2.70;99.90
21744;DHT22;11034;48.556;9.342;2024-03-08T08:05:31;2.70;99.90
21744;DHT22;11034;48.556;9.342;2024-03-08T08:08:02;2.60;99.90
21744;DHT22;11034;48.556;9.342;2024-03-08T08:10:33;2.80;99.90
21744;DHT22;11034;48.556;9.342;2024-03-08T08:13:01;2.80;99.90
21744;DHT22;11034;48.556;9.342;2024-03-08T08:15:33;2.80;99.90
21744;DHT22;11034;48.556;9.342;2024-03-08T08:18:02;2.60;99.90
21744;DHT22;11034;48.556;9.342;2024-03-08T08:20:33;2.50;99.90
21744;DHT22;11034;48.556;9.342;2024-03-08T08:23:02;2.70;99.90
21744;DHT22;11034;48.556;9.342;2024-03-08T08:25:30;2.90;99.90
21744;DHT22;11034;48.556;9.342;2024-03-08T08:28:02;2.90;99.90
21744;DHT22;11034;48.556;9.342;2024-03-08T08:30:34;3.10;99.90
21744;DHT22;11034;48.556;9.342;2024-03-08T08:33:02;3.30;99.90
21744;DHT22;11034;48.556;9.342;2024-03-08T08:35:34;3.50;99.90
21744;DHT22;11034;48.556;9.342;2024-03-08T08:38:02;3.70;99.90
21744;DHT22;11034;48.556;9.342;2024-03-08T08:40:31;3.80;99.90
21744;DHT22;11034;48.556;9.342;2024-03-08T08:43:00;3.70;99.90
21744;DHT22;11034;48.556;9.342;2024-03-08T08:45:31;3.70;99.90
21744;DHT22;11034;48.556;9.342;2024-03-08T08:48:01;3.80;99.90
21744;DHT22;11034;48.556;9.342;2024-03-08T08:50:30;3.90;99.90
21744;DHT22;11034;48.556;9.342;2024-03-08T08:52:59;4.00;99.90
21744;DHT22;11034;48.556;9.342;2024-03-08T08:55:27;4.00;99.90
21744;DHT22;11034;48.556;9.342;2024-03-08T08:57:56;4.20;99.90
21744;DHT22;11034;48.556;9.342;2024-03-08T09:00:33;4.20;99.90
21744;DHT22;11034;48.556;9.342;2024-03-08T09:03:08;4.10;99.90
21744;DHT22;11034;48.556;9.342;2024-03-08T09:05:37;4.30;99.90
21744;DHT22;11034;48.556;9.342;2024-03-08T09:08:07;4.40;99.90
21744;DHT22;11034;48.556;9.342;2024-03-08T09:10:36;4.30;99.90
21744;DHT22;11034;48.556;9.342;2024-03-08T09:13:06;4.30;99.90
21744;DHT22;11034;48.556;9.342;2024-03-08T09:15:43;4.20;99.90
21744;DHT22;11034;48.556;9.342;2024-03-08T09:18:13;4.30;99.90
21744;DHT22;11034;48.556;9.342;2024-03-08T09:20:42;4.40;99.90
21744;DHT22;11034;48.556;9.342;2024-03-08T09:23:10;4.60;99.90
21744;DHT22;11034;48.556;9.342;2024-03-08T09:25:41;4.40;99.90
21744;DHT22;11034;48.556;9.342;2024-03-08T09:28:11;4.30;99.90
21744;DHT22;11034;48.556;9.342;2024-03-08T09:30:39;4.40;99.90
21744;DHT22;11034;48.556;9.342;2024-03-08T09:33:15;4.40;99.90
21744;DHT22;11034;48.556;9.342;2024-03-08T09:35:46;4.40;99.90
21744;DHT22;11034;48.556;9.342;2024-03-08T09:38:15;4.40;99.90
21744;DHT22;11034;48.556;9.342;2024-03-08T09:40:43;4.50;99.90
21744;DHT22;11034;48.556;9.342;2024-03-08T09:43:13;4.20;99.90
21744;DHT22;11034;48.556;9.342;2024-03-08T09:45:42;4.40;99.90
21744;DHT22;11034;48.556;9.342;2024-03-08T09:48:11;4.70;99.90
21744;DHT22;11034;48.556;9.342;2024-03-08T09:50:42;5.00;99.90
21744;DHT22;11034;48.556;9.342;2024-03-08T09:53:16;5.20;99.90
21744;DHT22;11034;48.556;9.342;2024-03-08T09:55:51;5.60;99.90
21744;DHT22;11034;48.556;9.342;2024-03-08T09:58:19;5.80;99.90
21744;DHT22;11034;48.556;9.342;2024-03-08T10:01:08;5.90;99.90
21744;DHT22;11034;48.556;9.342;2024-03-08T10:03:36;5.80;99.90
21744;DHT22;11034;48.556;9.342;2024-03-08T10:06:06;5.60;99.90
21744;DHT22;11034;48.556;9.342;2024-03-08T10:08:37;5.40;99.90
21744;DHT22;11034;48.556;9.342;2024-03-08T10:11:05;5.40;99.90
21744;DHT22;11034;48.556;9.342;2024-03-08T10:13:33;5.60;99.90
21744;DHT22;11034;48.556;9.342;2024-03-08T10:16:03;5.60;99.90
21744;DHT22;11034;48.556;9.342;2024-03-08T10:18:32;5.60;99.90
21744;DHT22;11034;48.556;9.342;2024-03-08T10:21:07;5.60;99.90
21744;DHT22;11034;48.556;9.342;2024-03-08T10:23:37;5.70;99.90
21744;DHT22;11034;48.556;9.342;2024-03-08T10:26:10;5.60;99.90
21744;DHT22;11034;48.556;9.342;2024-03-08T10:28:42;5.50;99.90
21744;DHT22;11034;48.556;9.342;2024-03-08T10:31:11;5.60;99.90
21744;DHT22;11034;48.556;9.342;2024-03-08T10:33:43;5.70;99.90
21744;DHT22;11034;48.556;9.342;2024-03-08T10:36:14;5.90;99.90
21744;DHT22;11034;48.556;9.342;2024-03-08T10:38:43;5.70;99.90
21744;DHT22;11034;48.556;9.342;2024-03-08T10:41:16;5.60;99.90
21744;DHT22;11034;48.556;9.342;2024-03-08T10:43:57;4.80;99.90
21744;DHT22;11034;48.556;9.342;2024-03-08T10:46:44;5.00;99.90
21744;DHT22;11034;48.556;9.342;2024-03-08T10:49:25;5.10;99.90
21744;DHT22;11034;48.556;9.342;2024-03-08T10:51:56;5.20;99.90
21744;DHT22;11034;48.556;9.342;2024-03-08T10:54:26;5.30;99.90
21744;DHT22;11034;48.556;9.342;2024-03-08T10:56:55;5.40;99.90
21744;DHT22;11034;48.556;9.342;2024-03-08T10:59:25;6.00;99.90
21744;DHT22;11034;48.556;9.342;2024-03-08T11:01:54;6.40;99.90
21744;DHT22;11034;48.556;9.342;2024-03-08T11:04:22;6.80;99.90
21744;DHT22;11034;48.556;9.342;2024-03-08T11:06:51;6.90;99.90
21744;DHT22;11034;48.556;9.342;2024-03-08T11:09:32;6.00;99.90
21744;DHT22;11034;48.556;9.342;2024-03-08T11:12:21;6.00;99.90
21744;DHT22;11034;48.556;9.342;2024-03-08T11:14:53;5.90;99.90
21744;DHT22;11034;48.556;9.342;2024-03-08T11:20:11;6.00;99.90
21744;DHT22;11034;48.556;9.342;2024-03-08T11:22:48;5.70;99.90
21744;DHT22;11034;48.556;9.342;2024-03-08T11:25:36;5.70;99.90
21744;DHT22;11034;48.556;9.342;2024-03-08T11:28:12;5.40;99.90
21744;DHT22;11034;48.556;9.342;2024-03-08T11:31:23;5.00;99.90
21744;DHT22;11034;48.556;9.342;2024-03-08T11:33:53;5.20;99.90
21744;DHT22;11034;48.556;9.342;2024-03-08T11:36:23;5.40;99.90
21744;DHT22;11034;48.556;9.342;2024-03-08T11:38:52;5.40;99.90
21744;DHT22;11034;48.556;9.342;2024-03-08T11:41:24;5.40;99.90
21744;DHT22;11034;48.556;9.342;2024-03-08T11:44:02;5.60;99.90
21744;DHT22;11034;48.556;9.342;2024-03-08T11:46:33;5.70;99.90
21744;DHT22;11034;48.556;9.342;2024-03-08T11:49:01;5.90;99.90
21744;DHT22;11034;48.556;9.342;2024-03-08T11:51:30;5.80;99.90
21744;DHT22;11034;48.556;9.342;2024-03-08T11:53:59;5.70;99.90
21744;DHT22;11034;48.556;9.342;2024-03-08T11:56:29;6.00;99.90
21744;DHT22;11034;48.556;9.342;2024-03-08T11:58:59;5.80;99.90
21744;DHT22;11034;48.556;9.342;2024-03-08T12:01:28;5.60;99.90
21744;DHT22;11034;48.556;9.342;2024-03-08T12:03:58;5.80;99.90
21744;DHT22;11034;48.556;9.342;2024-03-08T12:06:27;6.00;99.90
21744;DHT22;11034;48.556;9.342;2024-03-08T12:09:04;5.90;99.90
21744;DHT22;11034;48.556;9.342;2024-03-08T12:11:33;6.10;99.90
21744;DHT22;11034;48.556;9.342;2024-03-08T12:14:03;6.00;99.90
21744;DHT22;11034;48.556;9.342;2024-03-08T12:16:31;6.00;99.90
21744;DHT22;11034;48.556;9.342;2024-03-08T12:19:00;6.10;99.90
21744;DHT22;11034;48.556;9.342;2024-03-08T12:21:32;5.90;99.90
21744;DHT22;11034;48.556;9.342;2024-03-08T12:24:06;6.00;99.90
21744;DHT22;11034;48.556;9.342;2024-03-08T12:26:38;6.00;99.90
21744;DHT22;11034;48.556;9.342;2024-03-08T12:29:17;6.10;99.90
21744;DHT22;11034;48.556;9.342;2024-03-08T12:31:48;6.40;99.90
21744;DHT22;11034;48.556;9.342;2024-03-08T12:34:16;6.50;99.90
21744;DHT22;11034;48.556;9.342;2024-03-08T12:36:46;6.70;99.90
21744;DHT22;11034;48.556;9.342;2024-03-08T12:39:19;6.70;99.90
21744;DHT22;11034;48.556;9.342;2024-03-08T12:41:55;6.60;99.90
21744;DHT22;11034;48.556;9.342;2024-03-08T12:44:26;6.50;99.90
21744;DHT22;11034;48.556;9.342;2024-03-08T12:46:55;6.60;99.90
21744;DHT22;11034;48.556;9.342;2024-03-08T12:49:26;6.70;99.90
21744;DHT22;11034;48.556;9.342;2024-03-08T12:51:55;6.60;99.90
21744;DHT22;11034;48.556;9.342;2024-03-08T12:54:23;6.70;99.90
21744;DHT22;11034;48.556;9.342;2024-03-08T12:56:52;6.70;99.90
21744;DHT22;11034;48.556;9.342;2024-03-08T12:59:23;6.80;99.90
21744;DHT22;11034;48.556;9.342;2024-03-08T13:01:52;7.00;99.90
21744;DHT22;11034;48.556;9.342;2024-03-08T13:04:25;6.80;99.90
21744;DHT22;11034;48.556;9.342;2024-03-08T13:06:54;7.00;99.90
21744;DHT22;11034;48.556;9.342;2024-03-08T13:09:22;7.00;99.90
21744;DHT22;11034;48.556;9.342;2024-03-08T13:11:54;7.10;99.90
21744;DHT22;11034;48.556;9.342;2024-03-08T13:14:27;7.10;99.90
21744;DHT22;11034;48.556;9.342;2024-03-08T13:16:58;7.30;99.90
21744;DHT22;11034;48.556;9.342;2024-03-08T13:19:27;7.00;99.90
21744;DHT22;11034;48.556;9.342;2024-03-08T13:21:56;7.00;99.90
21744;DHT22;11034;48.556;9.342;2024-03-08T13:24:24;6.80;99.90
21744;DHT22;11034;48.556;9.342;2024-03-08T13:26:53;6.90;99.90
21744;DHT22;11034;48.556;9.342;2024-03-08T13:29:22;7.20;99.90
21744;DHT22;11034;48.556;9.342;2024-03-08T13:31:51;7.30;99.90
21744;DHT22;11034;48.556;9.342;2024-03-08T13:34:22;7.30;99.90
21744;DHT22;11034;48.556;9.342;2024-03-08T13:36:56;7.20;99.90
21744;DHT22;11034;48.556;9.342;2024-03-08T13:39:27;7.20;99.90
21744;DHT22;11034;48.556;9.342;2024-03-08T13:41:58;7.20;99.90
21744;DHT22;11034;48.556;9.342;2024-03-08T13:44:26;7.40;99.90
21744;DHT22;11034;48.556;9.342;2024-03-08T13:46:56;7.50;99.90
21744;DHT22;11034;48.556;9.342;2024-03-08T13:49:25;7.60;99.90
21744;DHT22;11034;48.556;9.342;2024-03-08T13:51:54;7.60;99.90
21744;DHT22;11034;48.556;9.342;2024-03-08T13:54:25;7.60;99.90
21744;DHT22;11034;48.556;9.342;2024-03-08T13:56:58;7.60;99.90
21744;DHT22;11034;48.556;9.342;2024-03-08T13:59:27;7.70;99.90
21744;DHT22;11034;48.556;9.342;2024-03-08T14:01:57;7.70;99.90
21744;DHT22;11034;48.556;9.342;2024-03-08T14:04:26;7.60;99.90
21744;DHT22;11034;48.556;9.342;2024-03-08T14:06:55;7.60;99.90
21744;DHT22;11034;48.556;9.342;2024-03-08T14:09:28;7.70;99.90
21744;DHT22;11034;48.556;9.342;2024-03-08T14:11:57;7.70;99.90
21744;DHT22;11034;48.556;9.342;2024-03-08T14:14:26;7.50;99.90
21744;DHT22;11034;48.556;9.342;2024-03-08T14:16:56;7.40;99.90
21744;DHT22;11034;48.556;9.342;2024-03-08T14:19:25;7.50;99.90
21744;DHT22;11034;48.556;9.342;2024-03-08T14:21:54;7.60;99.90
21744;DHT22;11034;48.556;9.342;2024-03-08T14:24:22;7.70;99.90
21744;DHT22;11034;48.556;9.342;2024-03-08T14:26:50;7.80;99.90
21744;DHT22;11034;48.556;9.342;2024-03-08T14:29:19;7.80;99.90
21744;DHT22;11034;48.556;9.342;2024-03-08T14:31:47;7.80;99.90
21744;DHT22;11034;48.556;9.342;2024-03-08T14:34:17;7.90;99.90
21744;DHT22;11034;48.556;9.342;2024-03-08T14:36:47;7.90;99.90
21744;DHT22;11034;48.556;9.342;2024-03-08T14:39:15;8.00;99.90
21744;DHT22;11034;48.556;9.342;2024-03-08T14:41:48;8.00;99.90
21744;DHT22;11034;48.556;9.342;2024-03-08T14:44:20;8.10;99.90
21744;DHT22;11034;48.556;9.342;2024-03-08T14:46:52;8.00;99.90
21744;DHT22;11034;48.556;9.342;2024-03-08T14:49:22;8.00;99.90
21744;DHT22;11034;48.556;9.342;2024-03-08T14:51:50;8.10;99.90
21744;DHT22;11034;48.556;9.342;2024-03-08T14:54:18;8.10;99.90
21744;DHT22;11034;48.556;9.342;2024-03-08T14:56:49;8.10;99.90
21744;DHT22;11034;48.556;9.342;2024-03-08T14:59:18;8.20;99.90
21744;DHT22;11034;48.556;9.342;2024-03-08T15:01:46;8.30;99.90
21744;DHT22;11034;48.556;9.342;2024-03-08T15:04:15;8.40;99.90
21744;DHT22;11034;48.556;9.342;2024-03-08T15:06:46;8.40;99.90
21744;DHT22;11034;48.556;9.342;2024-03-08T15:09:18;8.40;99.90
21744;DHT22;11034;48.556;9.342;2024-03-08T15:11:46;8.40;99.90
21744;DHT22;11034;48.556;9.342;2024-03-08T15:14:16;8.50;99.90
21744;DHT22;11034;48.556;9.342;2024-03-08T15:16:46;8.40;99.90
21744;DHT22;11034;48.556;9.342;2024-03-08T15:19:15;8.40;99.90
21744;DHT22;11034;48.556;9.342;2024-03-08T15:21:47;8.40;99.90
21744;DHT22;11034;48.556;9.342;2024-03-08T15:24:17;8.40;99.90
21744;DHT22;11034;48.556;9.342;2024-03-08T15:26:48;8.30;99.90
21744;DHT22;11034;48.556;9.342;2024-03-08T15:29:18;8.30;99.90
21744;DHT22;11034;48.556;9.342;2024-03-08T15:31:51;8.30;99.90
21744;DHT22;11034;48.556;9.342;2024-03-08T15:34:21;8.20;99.90
21744;DHT22;11034;48.556;9.342;2024-03-08T15:36:52;8.30;99.90
21744;DHT22;11034;48.556;9.342;2024-03-08T15:39:20;8.20;99.90
21744;DHT22;11034;48.556;9.342;2024-03-08T15:41:50;8.30;99.90
21744;DHT22;11034;48.556;9.342;2024-03-08T15:44:18;8.30;99.90
21744;DHT22;11034;48.556;9.342;2024-03-08T15:46:47;8.20;99.90
21744;DHT22;11034;48.556;9.342;2024-03-08T15:49:16;8.20;99.90
21744;DHT22;11034;48.556;9.342;2024-03-08T15:51:46;8.20;99.90
21744;DHT22;11034;48.556;9.342;2024-03-08T15:54:16;8.20;99.90
21744;DHT22;11034;48.556;9.342;2024-03-08T15:56:45;8.20;99.90
21744;DHT22;11034;48.556;9.342;2024-03-08T15:59:13;8.20;99.90
21744;DHT22;11034;48.556;9.342;2024-03-08T16:01:42;8.20;99.90
21744;DHT22;11034;48.556;9.342;2024-03-08T16:04:15;8.10;99.90